Time;durP1;ratioP1;P1;durP2;ratioP2;P2;SDS_P1;SDS_P2;PMS_P1;PMS_P2;Temp;Humidity;BMP_temperature;BMP_pressure;BME280_temperature;BME280_humidity;BME280_pressure;Samples;Min_cycle;Max_cycle;Signal;HPM_P1;HPM_P2
2021/11/28 00:01:05;;;;;;;29.35;12.52;;;;;;;;;;5010074;28;20400;-67
2021/11/28 00:03:32;;;;;;;36.38;14.50;;;;;;;;;;5004502;28;20581;-67
2021/11/28 00:06:02;;;;;;;30.38;13.02;;;;;;;;;;4981420;28;20029;-67
2021/11/28 00:16:15;;;;;;;31.95;13.57;;;;;;;;;;5009497;28;20351;-67
2021/11/28 00:18:41;;;;;;;38.65;14.80;;;;;;;;;;4993254;28;20374;-68
2021/11/28 00:21:08;;;;;;;39.45;14.63;;;;;;;;;;4993508;28;20423;-67
2021/11/28 00:23:34;;;;;;;30.38;13.55;;;;;;;;;;5012808;28;20024;-67
2021/11/28 00:25:59;;;;;;;35.60;14.98;;;;;;;;;;5011551;28;20055;-67
2021/11/28 00:28:25;;;;;;;33.40;13.95;;;;;;;;;;5010764;28;20427;-67
2021/11/28 00:30:51;;;;;;;38.80;13.82;;;;;;;;;;5012388;28;20335;-68
2021/11/28 00:33:16;;;;;;;31.52;14.00;;;;;;;;;;5011253;28;20085;-67
2021/11/28 00:35:41;;;;;;;33.45;13.20;;;;;;;;;;5012787;28;20063;-67
2021/11/28 00:38:07;;;;;;;28.83;12.15;;;;;;;;;;5011842;28;20033;-69
2021/11/28 00:40:33;;;;;;;31.77;14.45;;;;;;;;;;5011532;28;20572;-67
2021/11/28 00:42:59;;;;;;;31.05;13.32;;;;;;;;;;5010999;28;20522;-67
2021/11/28 00:45:25;;;;;;;33.70;13.50;;;;;;;;;;4993143;28;20316;-67
2021/11/28 00:47:50;;;;;;;31.35;13.13;;;;;;;;;;5010804;28;20045;-67
2021/11/28 00:52:42;;;;;;;34.00;15.15;;;;;;;;;;5010541;28;20533;-67
2021/11/28 00:55:09;;;;;;;34.63;13.10;;;;;;;;;;5010883;28;20380;-67
2021/11/28 00:57:36;;;;;;;35.97;13.68;;;;;;;;;;4992456;28;20399;-68
2021/11/28 01:00:07;;;;;;;33.80;14.52;;;;;;;;;;5010655;28;20041;-67
2021/11/28 01:02:33;;;;;;;34.33;13.23;;;;;;;;;;4993587;28;20450;-68
2021/11/28 01:04:59;;;;;;;27.10;11.55;;;;;;;;;;4992632;28;20436;-69
2021/11/28 01:07:26;;;;;;;30.08;13.00;;;;;;;;;;5010570;28;20355;-67
2021/11/28 01:09:54;;;;;;;26.10;11.88;;;;;;;;;;5010699;28;20428;-67
2021/11/28 01:12:21;;;;;;;28.30;11.30;;;;;;;;;;5010778;28;20439;-67
2021/11/28 01:14:47;;;;;;;26.13;12.20;;;;;;;;;;5010233;28;20611;-67
2021/11/28 01:17:12;;;;;;;26.27;12.35;;;;;;;;;;4993073;28;20373;-67
2021/11/28 01:19:38;;;;;;;28.00;11.77;;;;;;;;;;5010551;28;20032;-67
2021/11/28 01:22:06;;;;;;;32.33;13.73;;;;;;;;;;5010403;28;20106;-67
2021/11/28 01:24:32;;;;;;;28.15;11.40;;;;;;;;;;5009924;28;20359;-67
2021/11/28 01:26:58;;;;;;;23.30;11.57;;;;;;;;;;5009598;28;20029;-67
2021/11/28 01:29:24;;;;;;;27.65;12.02;;;;;;;;;;5010196;28;20458;-67
2021/11/28 01:31:49;;;;;;;22.40;11.23;;;;;;;;;;5010178;28;20419;-67
2021/11/28 01:34:14;;;;;;;28.90;12.50;;;;;;;;;;5010219;28;20382;-67
2021/11/28 01:36:40;;;;;;;26.88;12.05;;;;;;;;;;5010802;28;20316;-67
2021/11/28 01:39:07;;;;;;;27.13;11.85;;;;;;;;;;5009831;28;20510;-67
2021/11/28 01:41:33;;;;;;;26.73;12.25;;;;;;;;;;5010905;28;20445;-67
2021/11/28 01:43:59;;;;;;;26.38;11.75;;;;;;;;;;5009619;28;20552;-67
2021/11/28 01:46:26;;;;;;;25.17;12.25;;;;;;;;;;5010631;28;20036;-67
2021/11/28 01:48:52;;;;;;;24.85;11.35;;;;;;;;;;5009706;28;20389;-67
2021/11/28 01:51:17;;;;;;;26.38;10.60;;;;;;;;;;5009668;28;20398;-67
2021/11/28 01:53:43;;;;;;;23.70;10.85;;;;;;;;;;5010981;28;20398;-67
2021/11/28 01:56:09;;;;;;;22.38;10.35;;;;;;;;;;5011241;28;20158;-67
2021/11/28 01:58:36;;;;;;;30.65;12.00;;;;;;;;;;5008304;28;20518;-67
2021/11/28 02:01:07;;;;;;;23.42;11.38;;;;;;;;;;4991654;28;20359;-67
2021/11/28 02:03:37;;;;;;;29.48;11.48;;;;;;;;;;5009383;28;20431;-68
2021/11/28 02:06:03;;;;;;;27.42;11.80;;;;;;;;;;5010523;28;20037;-68
2021/11/28 02:08:28;;;;;;;28.45;11.25;;;;;;;;;;5009528;28;20431;-67
2021/11/28 02:10:54;;;;;;;23.85;11.30;;;;;;;;;;5010336;28;20340;-67
2021/11/28 02:13:21;;;;;;;25.85;11.68;;;;;;;;;;5009200;28;20339;-69
2021/11/28 02:15:46;;;;;;;26.58;10.35;;;;;;;;;;5009310;28;20348;-67
2021/11/28 02:18:12;;;;;;;26.85;11.35;;;;;;;;;;5009201;28;20055;-67
2021/11/28 02:20:45;;;;;;;20.65;10.32;;;;;;;;;;5009233;28;20078;-68
2021/11/28 02:23:11;;;;;;;22.23;10.68;;;;;;;;;;5007952;28;20456;-67
2021/11/28 02:25:36;;;;;;;17.67;9.52;;;;;;;;;;4991976;28;20374;-67
2021/11/28 02:28:02;;;;;;;26.15;11.93;;;;;;;;;;5010890;28;20386;-67
2021/11/28 02:30:27;;;;;;;27.10;10.13;;;;;;;;;;5008650;28;20086;-68
2021/11/28 02:32:53;;;;;;;20.77;10.77;;;;;;;;;;4991090;28;20414;-67
2021/11/28 02:35:19;;;;;;;21.27;10.05;;;;;;;;;;5008879;28;20419;-67
2021/11/28 02:37:46;;;;;;;21.92;10.40;;;;;;;;;;4974210;28;20423;-68
2021/11/28 02:40:17;;;;;;;23.63;10.45;;;;;;;;;;5008453;28;20420;-67
2021/11/28 02:42:42;;;;;;;21.02;10.68;;;;;;;;;;5008906;28;20443;-67
2021/11/28 02:45:10;;;;;;;26.70;10.27;;;;;;;;;;5008805;28;20431;-67
2021/11/28 02:47:36;;;;;;;23.65;10.15;;;;;;;;;;5008297;28;20044;-67
2021/11/28 02:50:02;;;;;;;24.92;10.23;;;;;;;;;;5010398;28;20697;-67
2021/11/28 02:52:28;;;;;;;29.15;10.73;;;;;;;;;;5009099;28;20350;-67
2021/11/28 02:54:53;;;;;;;18.85;9.60;;;;;;;;;;5008996;28;20336;-69
2021/11/28 02:57:19;;;;;;;26.20;11.65;;;;;;;;;;5009691;28;20385;-67
2021/11/28 02:59:44;;;;;;;20.13;10.32;;;;;;;;;;5008521;28;20451;-67
2021/11/28 03:02:10;;;;;;;23.83;10.43;;;;;;;;;;4990718;28;20371;-67
2021/11/28 03:04:35;;;;;;;26.50;10.77;;;;;;;;;;5008330;28;20124;-67
2021/11/28 03:07:00;;;;;;;29.00;10.95;;;;;;;;;;5008746;28;20094;-69
2021/11/28 03:09:26;;;;;;;23.17;10.30;;;;;;;;;;5008997;28;20338;-68
2021/11/28 03:11:51;;;;;;;25.13;10.43;;;;;;;;;;5008450;28;20119;-67
2021/11/28 03:14:17;;;;;;;27.85;10.48;;;;;;;;;;4990758;28;20435;-67
2021/11/28 03:16:43;;;;;;;21.60;9.40;;;;;;;;;;4990559;28;20351;-67
2021/11/28 03:19:09;;;;;;;20.27;9.65;;;;;;;;;;5008424;28;20538;-67
2021/11/28 03:21:35;;;;;;;20.45;9.15;;;;;;;;;;5008240;28;20351;-67
2021/11/28 03:24:03;;;;;;;22.10;9.68;;;;;;;;;;5008940;28;20025;-67
2021/11/28 03:26:35;;;;;;;24.57;10.63;;;;;;;;;;5007166;28;20455;-67
2021/11/28 03:29:09;;;;;;;18.35;9.38;;;;;;;;;;5007074;28;20432;-68
2021/11/28 03:31:39;;;;;;;21.27;9.45;;;;;;;;;;5008253;28;20521;-67
2021/11/28 03:34:06;;;;;;;25.38;10.40;;;;;;;;;;5008795;28;20548;-67
2021/11/28 03:36:32;;;;;;;19.52;8.88;;;;;;;;;;4990353;28;20383;-67
2021/11/28 03:38:58;;;;;;;18.15;9.45;;;;;;;;;;5007843;28;20507;-67
2021/11/28 03:41:26;;;;;;;17.00;9.73;;;;;;;;;;5009953;28;20441;-67
2021/11/28 03:43:53;;;;;;;24.00;9.63;;;;;;;;;;5008730;28;20205;-67
2021/11/28 03:46:19;;;;;;;20.52;9.75;;;;;;;;;;5008364;28;20046;-67
2021/11/28 03:48:44;;;;;;;18.35;9.65;;;;;;;;;;4971220;28;20053;-67
2021/11/28 03:51:10;;;;;;;21.65;10.35;;;;;;;;;;4991329;28;20293;-68
2021/11/28 03:53:35;;;;;;;20.63;9.48;;;;;;;;;;4974267;28;20446;-68
2021/11/28 03:56:04;;;;;;;23.23;10.93;;;;;;;;;;4993083;28;20033;-67
2021/11/28 03:58:29;;;;;;;21.58;10.38;;;;;;;;;;4990901;28;20388;-67
2021/11/28 04:00:56;;;;;;;21.08;9.80;;;;;;;;;;4992128;28;20323;-67
2021/11/28 04:03:22;;;;;;;18.75;8.90;;;;;;;;;;4974124;28;20108;-67
2021/11/28 04:05:47;;;;;;;19.80;9.02;;;;;;;;;;4991847;28;20025;-68
2021/11/28 04:08:13;;;;;;;19.80;8.80;;;;;;;;;;4991695;28;20368;-68
2021/11/28 04:10:38;;;;;;;18.38;9.45;;;;;;;;;;4991779;28;20379;-67
2021/11/28 04:13:04;;;;;;;18.17;9.63;;;;;;;;;;4992429;28;20048;-67
2021/11/28 04:15:30;;;;;;;20.70;9.23;;;;;;;;;;4992871;28;20450;-67
2021/11/28 04:17:56;;;;;;;18.63;9.55;;;;;;;;;;4974016;28;20098;-67
2021/11/28 04:20:21;;;;;;;17.30;8.93;;;;;;;;;;4992085;28;20447;-67
2021/11/28 04:22:46;;;;;;;20.20;8.65;;;;;;;;;;4992302;28;20436;-67
2021/11/28 04:25:13;;;;;;;17.85;9.02;;;;;;;;;;4991790;28;20344;-67
2021/11/28 04:27:38;;;;;;;19.30;8.50;;;;;;;;;;4991379;28;20310;-68
2021/11/28 04:30:05;;;;;;;18.77;9.13;;;;;;;;;;4974562;28;20061;-67
2021/11/28 04:32:31;;;;;;;16.10;8.35;;;;;;;;;;4991308;28;20432;-67
2021/11/28 04:34:56;;;;;;;19.25;9.77;;;;;;;;;;4992167;28;20451;-67
2021/11/28 04:37:22;;;;;;;19.15;9.05;;;;;;;;;;4991242;28;20459;-67
2021/11/28 04:39:47;;;;;;;20.52;8.80;;;;;;;;;;4990923;28;20340;-67
2021/11/28 04:42:13;;;;;;;17.60;7.93;;;;;;;;;;4992033;28;20408;-67
2021/11/28 04:44:38;;;;;;;19.27;9.23;;;;;;;;;;4991445;28;20546;-67
2021/11/28 04:47:03;;;;;;;18.63;9.30;;;;;;;;;;4995522;28;20512;-67
2021/11/28 04:49:29;;;;;;;17.55;9.77;;;;;;;;;;5010698;28;20024;-67
2021/11/28 04:51:54;;;;;;;18.50;8.65;;;;;;;;;;4992799;28;20336;-67
2021/11/28 04:54:20;;;;;;;21.20;9.63;;;;;;;;;;5011249;28;20396;-67
2021/11/28 04:56:45;;;;;;;15.93;8.57;;;;;;;;;;5011588;28;20413;-67
2021/11/28 04:59:10;;;;;;;19.05;8.45;;;;;;;;;;5012779;28;20335;-67
2021/11/28 05:01:36;;;;;;;18.73;9.00;;;;;;;;;;5010114;28;20047;-68
2021/11/28 05:04:01;;;;;;;17.27;8.63;;;;;;;;;;4992927;28;20402;-67
2021/11/28 05:06:27;;;;;;;17.50;9.45;;;;;;;;;;4992480;28;20382;-67
2021/11/28 05:08:53;;;;;;;15.32;7.80;;;;;;;;;;5010613;28;20423;-68
2021/11/28 05:11:18;;;;;;;18.75;9.45;;;;;;;;;;5010544;28;20051;-66
2021/11/28 05:13:44;;;;;;;18.42;8.45;;;;;;;;;;5011789;28;20442;-67
2021/11/28 05:16:09;;;;;;;22.02;9.90;;;;;;;;;;5010428;28;20316;-68
2021/11/28 05:18:34;;;;;;;20.40;8.82;;;;;;;;;;5010423;28;20033;-67
2021/11/28 05:21:00;;;;;;;18.42;7.72;;;;;;;;;;5010325;28;20028;-67
2021/11/28 05:23:25;;;;;;;19.35;9.70;;;;;;;;;;5010405;28;20511;-67
2021/11/28 05:25:50;;;;;;;17.05;8.73;;;;;;;;;;5010487;28;20086;-67
2021/11/28 05:28:16;;;;;;;19.60;7.72;;;;;;;;;;4992214;28;20540;-68
2021/11/28 05:30:41;;;;;;;21.08;8.45;;;;;;;;;;5010159;28;20463;-67
2021/11/28 05:33:07;;;;;;;17.13;7.88;;;;;;;;;;5010175;28;20020;-67
2021/11/28 05:35:33;;;;;;;17.05;8.60;;;;;;;;;;5010309;28;20525;-68
2021/11/28 05:37:59;;;;;;;22.65;8.95;;;;;;;;;;5008335;28;20453;-67
2021/11/28 05:40:25;;;;;;;19.85;8.95;;;;;;;;;;5011749;28;20435;-67
2021/11/28 05:42:52;;;;;;;19.58;8.90;;;;;;;;;;4992033;28;20438;-67
2021/11/28 05:45:22;;;;;;;16.30;8.30;;;;;;;;;;4992401;28;20327;-67
2021/11/28 05:47:49;;;;;;;15.68;8.20;;;;;;;;;;5009344;28;20447;-67
2021/11/28 05:50:15;;;;;;;16.20;8.38;;;;;;;;;;4992490;28;20384;-67
2021/11/28 05:52:41;;;;;;;18.45;9.13;;;;;;;;;;5010226;28;20032;-69
2021/11/28 05:55:07;;;;;;;17.30;8.70;;;;;;;;;;5009589;28;20089;-67
2021/11/28 05:57:32;;;;;;;17.15;8.10;;;;;;;;;;5009652;28;20444;-67
2021/11/28 05:59:58;;;;;;;16.85;8.50;;;;;;;;;;5010885;28;20403;-67
2021/11/28 06:02:23;;;;;;;16.40;8.55;;;;;;;;;;5008752;28;20028;-67
2021/11/28 06:04:49;;;;;;;19.42;8.82;;;;;;;;;;5009650;28;20367;-67
2021/11/28 06:07:14;;;;;;;17.85;9.02;;;;;;;;;;5009254;28;20486;-68
2021/11/28 06:09:40;;;;;;;15.70;8.30;;;;;;;;;;5009776;28;20419;-67
2021/11/28 06:12:05;;;;;;;18.38;9.18;;;;;;;;;;5009063;28;20435;-67
2021/11/28 06:14:31;;;;;;;17.60;8.85;;;;;;;;;;5008992;28;20317;-68
2021/11/28 06:16:56;;;;;;;16.48;7.93;;;;;;;;;;5009035;28;20339;-67
2021/11/28 06:19:22;;;;;;;20.58;9.18;;;;;;;;;;5009917;28;20326;-67
2021/11/28 06:21:47;;;;;;;18.23;8.23;;;;;;;;;;4991115;28;20319;-67
2021/11/28 06:24:13;;;;;;;17.02;8.50;;;;;;;;;;5009081;28;20335;-67
2021/11/28 06:26:38;;;;;;;15.75;8.27;;;;;;;;;;5009375;28;20343;-67
2021/11/28 06:29:04;;;;;;;19.73;8.27;;;;;;;;;;5008978;28;20514;-67
2021/11/28 06:31:29;;;;;;;17.40;8.05;;;;;;;;;;5008881;28;20437;-67
2021/11/28 06:33:54;;;;;;;17.35;8.73;;;;;;;;;;4991122;28;20403;-67
2021/11/28 06:36:20;;;;;;;16.38;8.15;;;;;;;;;;5009146;28;20354;-67
2021/11/28 06:38:45;;;;;;;17.02;8.00;;;;;;;;;;4990858;28;20409;-67
2021/11/28 06:41:11;;;;;;;17.08;8.75;;;;;;;;;;5009203;28;20459;-67
2021/11/28 06:43:36;;;;;;;16.95;7.97;;;;;;;;;;5008895;28;20656;-67
2021/11/28 06:46:02;;;;;;;18.02;8.07;;;;;;;;;;5008945;28;20471;-67
2021/11/28 06:48:27;;;;;;;18.98;8.48;;;;;;;;;;5008621;28;20033;-68
2021/11/28 06:50:53;;;;;;;14.68;8.18;;;;;;;;;;5009304;28;20375;-67
2021/11/28 06:53:18;;;;;;;17.98;9.15;;;;;;;;;;5008583;28;20036;-67
2021/11/28 06:55:44;;;;;;;15.68;8.02;;;;;;;;;;5008926;28;20427;-67
2021/11/28 06:58:09;;;;;;;15.45;8.45;;;;;;;;;;5008738;28;20463;-67
2021/11/28 07:00:35;;;;;;;13.45;7.43;;;;;;;;;;5009460;28;20419;-67
2021/11/28 07:03:00;;;;;;;15.75;8.45;;;;;;;;;;5009173;28;20339;-67
2021/11/28 07:05:26;;;;;;;15.73;8.48;;;;;;;;;;5008585;28;20435;-67
2021/11/28 07:07:51;;;;;;;17.15;7.82;;;;;;;;;;5009034;28;20467;-67
2021/11/28 07:10:16;;;;;;;14.73;7.82;;;;;;;;;;5010035;28;20416;-68
2021/11/28 07:12:43;;;;;;;16.58;7.45;;;;;;;;;;5008544;28;20162;-67
2021/11/28 07:15:09;;;;;;;15.25;7.07;;;;;;;;;;5008575;28;20482;-68
2021/11/28 07:17:35;;;;;;;18.98;8.27;;;;;;;;;;4990577;28;20488;-69
2021/11/28 07:20:00;;;;;;;13.82;7.53;;;;;;;;;;5008461;28;20111;-67
2021/11/28 07:22:26;;;;;;;17.92;7.70;;;;;;;;;;5008392;28;20459;-67
2021/11/28 07:24:51;;;;;;;14.60;7.95;;;;;;;;;;5009795;28;20502;-67
2021/11/28 07:27:16;;;;;;;15.18;8.20;;;;;;;;;;5012479;28;20024;-67
2021/11/28 07:29:42;;;;;;;16.05;8.40;;;;;;;;;;5012701;28;20495;-67
2021/11/28 07:32:08;;;;;;;18.45;8.68;;;;;;;;;;4995098;28;20542;-67
2021/11/28 07:34:33;;;;;;;16.42;8.10;;;;;;;;;;5012038;28;20370;-67
2021/11/28 07:36:59;;;;;;;17.13;8.32;;;;;;;;;;5013723;28;20357;-67
2021/11/28 07:39:24;;;;;;;13.98;7.15;;;;;;;;;;4994271;28;20498;-67
2021/11/28 07:41:50;;;;;;;14.45;7.65;;;;;;;;;;5012496;28;20025;-67
2021/11/28 07:44:16;;;;;;;16.42;8.52;;;;;;;;;;5012077;28;20405;-67
2021/11/28 07:46:41;;;;;;;18.23;7.65;;;;;;;;;;5011634;28;20086;-67
2021/11/28 07:49:06;;;;;;;15.95;7.47;;;;;;;;;;5012090;28;20425;-67
2021/11/28 07:51:32;;;;;;;14.82;7.68;;;;;;;;;;5011712;28;20334;-67
2021/11/28 07:53:58;;;;;;;13.77;6.88;;;;;;;;;;5011871;28;20047;-67
2021/11/28 07:56:23;;;;;;;14.90;7.47;;;;;;;;;;4994017;28;20028;-67
2021/11/28 07:58:49;;;;;;;13.75;7.13;;;;;;;;;;5011896;28;20075;-67
2021/11/28 08:01:15;;;;;;;15.52;6.70;;;;;;;;;;5011883;28;20051;-67
2021/11/28 08:03:40;;;;;;;14.80;8.13;;;;;;;;;;4994046;28;20431;-68
2021/11/28 08:06:05;;;;;;;12.85;7.28;;;;;;;;;;4993768;28;20139;-67
2021/11/28 08:08:32;;;;;;;11.80;6.82;;;;;;;;;;4994281;28;20465;-67
2021/11/28 08:10:59;;;;;;;16.55;7.05;;;;;;;;;;5011623;28;20431;-67
2021/11/28 08:13:24;;;;;;;12.65;6.22;;;;;;;;;;5012423;28;20093;-67
2021/11/28 08:15:50;;;;;;;13.55;7.65;;;;;;;;;;5011523;28;20076;-67
2021/11/28 08:18:15;;;;;;;13.93;6.47;;;;;;;;;;5011424;28;20097;-67
2021/11/28 08:20:41;;;;;;;10.73;5.90;;;;;;;;;;5011758;28;20460;-67
2021/11/28 08:23:06;;;;;;;13.73;7.32;;;;;;;;;;4977435;28;20450;-67
2021/11/28 08:25:32;;;;;;;18.90;7.85;;;;;;;;;;5011125;28;20394;-67
2021/11/28 08:27:57;;;;;;;17.80;7.97;;;;;;;;;;5011550;28;20374;-67
2021/11/28 08:30:23;;;;;;;19.63;8.38;;;;;;;;;;5011424;28;20451;-67
2021/11/28 08:32:48;;;;;;;14.70;6.80;;;;;;;;;;5011600;28;20320;-67
2021/11/28 08:35:15;;;;;;;14.52;7.88;;;;;;;;;;5011307;28;20442;-67
2021/11/28 08:37:41;;;;;;;16.40;7.63;;;;;;;;;;5008893;28;20517;-67
2021/11/28 08:40:08;;;;;;;15.60;7.85;;;;;;;;;;5011048;28;20459;-67
2021/11/28 08:42:34;;;;;;;15.88;7.22;;;;;;;;;;5010501;28;20056;-67
2021/11/28 08:45:07;;;;;;;15.38;7.35;;;;;;;;;;5011235;28;20387;-67
2021/11/28 08:47:32;;;;;;;12.32;6.43;;;;;;;;;;4985184;28;20155;-67
2021/11/28 08:49:57;;;;;;;14.63;7.15;;;;;;;;;;4990874;28;20432;-67
2021/11/28 08:52:23;;;;;;;14.55;6.95;;;;;;;;;;4992219;28;20474;-67
2021/11/28 08:54:48;;;;;;;15.57;6.78;;;;;;;;;;4991871;28;20029;-67
2021/11/28 08:57:14;;;;;;;12.13;6.47;;;;;;;;;;4991898;28;20336;-67
2021/11/28 08:59:40;;;;;;;15.15;6.88;;;;;;;;;;4990929;28;20025;-67
2021/11/28 09:02:06;;;;;;;14.07;7.47;;;;;;;;;;4991665;28;20324;-68
2021/11/28 09:04:31;;;;;;;12.50;6.53;;;;;;;;;;4990682;28;20313;-67
2021/11/28 09:06:57;;;;;;;13.88;7.00;;;;;;;;;;4990633;28;20033;-67
2021/11/28 09:09:22;;;;;;;13.77;7.18;;;;;;;;;;4990927;28;20498;-68
2021/11/28 09:11:47;;;;;;;12.68;7.07;;;;;;;;;;4991803;28;20435;-67
2021/11/28 09:14:13;;;;;;;19.77;7.47;;;;;;;;;;4990675;28;20339;-68
2021/11/28 09:16:38;;;;;;;11.00;6.25;;;;;;;;;;4990667;28;20025;-67
2021/11/28 09:19:18;;;;;;;11.75;6.53;;;;;;;;;;4972923;28;20471;-67
2021/11/28 09:21:44;;;;;;;14.73;7.47;;;;;;;;;;4990419;28;20052;-67
2021/11/28 09:26:53;;;;;;;16.73;7.50;;;;;;;;;;4991788;28;20500;-68
2021/11/28 09:29:19;;;;;;;15.70;7.82;;;;;;;;;;4973016;28;20554;-67
2021/11/28 09:31:46;;;;;;;18.10;7.75;;;;;;;;;;4990880;28;20492;-67
2021/11/28 09:34:11;;;;;;;20.20;8.10;;;;;;;;;;4990514;28;20440;-67
2021/11/28 09:36:36;;;;;;;17.92;7.38;;;;;;;;;;4991460;28;20447;-67
2021/11/28 09:39:04;;;;;;;19.52;8.48;;;;;;;;;;4990944;28;20420;-67
2021/11/28 09:41:35;;;;;;;21.17;8.82;;;;;;;;;;4990286;28;20521;-67
2021/11/28 09:44:04;;;;;;;20.83;8.32;;;;;;;;;;4990075;28;20491;-67
2021/11/28 09:46:30;;;;;;;16.10;7.35;;;;;;;;;;4972096;28;20490;-67
2021/11/28 09:48:59;;;;;;;15.32;7.35;;;;;;;;;;4974181;28;20451;-67
2021/11/28 09:51:29;;;;;;;20.98;8.25;;;;;;;;;;5009865;28;20350;-67
2021/11/28 09:53:59;;;;;;;23.65;8.90;;;;;;;;;;5010271;28;20420;-67
2021/11/28 09:56:26;;;;;;;19.48;8.20;;;;;;;;;;5009711;28;20424;-67
2021/11/28 09:58:54;;;;;;;16.85;8.07;;;;;;;;;;5009880;28;20186;-67
2021/11/28 10:01:20;;;;;;;21.75;8.13;;;;;;;;;;5009811;28;20028;-67
2021/11/28 10:03:45;;;;;;;20.88;8.40;;;;;;;;;;5009187;28;20496;-67
2021/11/28 10:06:11;;;;;;;19.35;8.10;;;;;;;;;;5009794;28;20471;-67
2021/11/28 10:08:37;;;;;;;22.27;8.00;;;;;;;;;;5009112;28;20412;-67
2021/11/28 10:11:11;;;;;;;19.33;8.77;;;;;;;;;;4991356;28;20058;-68
2021/11/28 10:13:37;;;;;;;21.20;8.30;;;;;;;;;;5009023;28;20419;-67
2021/11/28 10:16:02;;;;;;;20.73;8.75;;;;;;;;;;4991487;28;20319;-67
2021/11/28 10:18:27;;;;;;;21.05;8.95;;;;;;;;;;5009128;28;20329;-68
2021/11/28 10:20:53;;;;;;;22.23;8.15;;;;;;;;;;4991747;28;20331;-68
2021/11/28 10:23:19;;;;;;;15.73;8.02;;;;;;;;;;4991022;28;20454;-67
2021/11/28 10:25:44;;;;;;;21.65;8.40;;;;;;;;;;5008230;28;20368;-67
2021/11/28 10:28:10;;;;;;;18.80;9.20;;;;;;;;;;5008560;28;20436;-68
2021/11/28 10:30:37;;;;;;;20.38;8.45;;;;;;;;;;4988785;28;20052;-67
2021/11/28 10:33:22;;;;;;;21.85;7.82;;;;;;;;;;5006585;28;20458;-68
2021/11/28 10:36:03;;;;;;;20.10;10.18;;;;;;;;;;5008845;28;20029;-67
2021/11/28 10:38:40;;;;;;;19.83;9.10;;;;;;;;;;5008823;28;20461;-67
2021/11/28 10:41:20;;;;;;;20.75;9.82;;;;;;;;;;5008998;28;20468;-67
2021/11/28 10:43:45;;;;;;;20.25;9.10;;;;;;;;;;5008550;28;20447;-67
2021/11/28 10:46:32;;;;;;;23.77;8.65;;;;;;;;;;5009418;28;20545;-67
2021/11/28 10:49:17;;;;;;;20.77;9.02;;;;;;;;;;5008212;28;20383;-67
2021/11/28 10:51:45;;;;;;;19.92;9.10;;;;;;;;;;5008671;28;20356;-67
2021/11/28 10:54:30;;;;;;;22.70;9.68;;;;;;;;;;5009235;28;20370;-67
2021/11/28 10:57:08;;;;;;;23.35;9.98;;;;;;;;;;5009530;28;20490;-67
2021/11/28 10:59:35;;;;;;;19.63;8.80;;;;;;;;;;5008195;28;20340;-68
2021/11/28 11:02:00;;;;;;;22.20;9.88;;;;;;;;;;4990451;28;20424;-67
2021/11/28 11:04:29;;;;;;;19.80;9.68;;;;;;;;;;5009542;28;20297;-69
2021/11/28 11:07:09;;;;;;;20.10;8.20;;;;;;;;;;4990981;28;20028;-68
2021/11/28 11:09:43;;;;;;;23.95;9.63;;;;;;;;;;5008609;28;20336;-67
2021/11/28 11:12:28;;;;;;;19.67;9.43;;;;;;;;;;5008263;28;20402;-67
2021/11/28 11:14:56;;;;;;;17.30;9.02;;;;;;;;;;4990567;28;20435;-67
2021/11/28 11:17:23;;;;;;;22.63;8.73;;;;;;;;;;5008454;28;20037;-67
2021/11/28 11:19:48;;;;;;;18.38;9.13;;;;;;;;;;4991320;28;20431;-67
2021/11/28 11:22:27;;;;;;;20.10;8.88;;;;;;;;;;5008434;28;20393;-67
2021/11/28 11:24:56;;;;;;;21.92;9.18;;;;;;;;;;5007094;28;20047;-67
2021/11/28 11:27:34;;;;;;;19.15;9.27;;;;;;;;;;4991318;28;20471;-67
2021/11/28 11:30:16;;;;;;;19.60;9.07;;;;;;;;;;5008366;28;20416;-68
2021/11/28 11:32:43;;;;;;;24.17;9.82;;;;;;;;;;5006672;28;20417;-67
2021/11/28 11:35:10;;;;;;;21.48;9.38;;;;;;;;;;5008073;28;20339;-67
2021/11/28 11:37:38;;;;;;;16.90;8.68;;;;;;;;;;4990696;28;20340;-67
2021/11/28 11:40:14;;;;;;;21.42;9.63;;;;;;;;;;5007982;28;20028;-67
2021/11/28 11:42:42;;;;;;;22.77;9.90;;;;;;;;;;5008126;28;20435;-67
2021/11/28 11:45:09;;;;;;;21.05;8.73;;;;;;;;;;4990940;28;20435;-68
2021/11/28 11:47:35;;;;;;;21.20;9.68;;;;;;;;;;4982076;28;20509;-68
2021/11/28 11:50:00;;;;;;;19.73;9.70;;;;;;;;;;4970554;28;20424;-67
2021/11/28 11:52:26;;;;;;;17.35;9.52;;;;;;;;;;4970364;28;20486;-67
2021/11/28 11:54:52;;;;;;;17.77;8.82;;;;;;;;;;4989307;28;20098;-68
2021/11/28 11:57:24;;;;;;;23.25;9.07;;;;;;;;;;4988031;28;20310;-67
2021/11/28 12:00:08;;;;;;;17.17;9.50;;;;;;;;;;4970268;28;20297;-68
2021/11/28 12:02:39;;;;;;;22.70;8.88;;;;;;;;;;4989564;28;20377;-68
2021/11/28 12:05:23;;;;;;;20.92;9.32;;;;;;;;;;4988391;28;20459;-68
2021/11/28 12:07:50;;;;;;;18.95;9.15;;;;;;;;;;4989745;28;20449;-67
2021/11/28 12:10:36;;;;;;;21.25;9.93;;;;;;;;;;4970549;28;20404;-67
2021/11/28 12:13:14;;;;;;;19.20;9.65;;;;;;;;;;4991776;28;20474;-67
2021/11/28 12:15:48;;;;;;;21.42;9.43;;;;;;;;;;4991899;28;20447;-67
2021/11/28 12:18:34;;;;;;;19.70;8.43;;;;;;;;;;4975541;28;20444;-67
2021/11/28 12:21:28;;;;;;;21.33;9.23;;;;;;;;;;4980839;28;20458;-68
2021/11/28 12:24:09;;;;;;;21.58;9.00;;;;;;;;;;4973517;28;20355;-67
2021/11/28 12:26:38;;;;;;;18.55;9.10;;;;;;;;;;4991720;28;20443;-67
2021/11/28 12:29:15;;;;;;;23.60;10.35;;;;;;;;;;4992754;28;20437;-68
2021/11/28 12:31:48;;;;;;;22.55;9.88;;;;;;;;;;4991771;28;20527;-67
2021/11/28 12:34:25;;;;;;;20.92;10.00;;;;;;;;;;4973557;28;20439;-68
2021/11/28 12:36:55;;;;;;;21.38;9.90;;;;;;;;;;4992959;28;20116;-67
2021/11/28 12:39:21;;;;;;;25.40;10.75;;;;;;;;;;4973775;28;20424;-67
2021/11/28 12:41:52;;;;;;;22.27;11.00;;;;;;;;;;4990932;28;20025;-67
2021/11/28 12:44:31;;;;;;;24.40;10.95;;;;;;;;;;4991318;28;20107;-67
2021/11/28 12:47:09;;;;;;;21.58;12.10;;;;;;;;;;4990960;28;20335;-67
2021/11/28 12:49:54;;;;;;;30.23;12.23;;;;;;;;;;5010713;28;20382;-67
2021/11/28 12:52:25;;;;;;;25.67;11.77;;;;;;;;;;5010496;28;20478;-67
2021/11/28 12:55:02;;;;;;;30.70;13.02;;;;;;;;;;5011270;28;20439;-67
2021/11/28 12:57:31;;;;;;;30.10;11.93;;;;;;;;;;5010898;28;20458;-67
2021/11/28 13:00:29;;;;;;;30.33;12.82;;;;;;;;;;5010408;28;20435;-68
2021/11/28 13:03:15;;;;;;;25.70;12.25;;;;;;;;;;5010370;28;20394;-67
2021/11/28 13:05:48;;;;;;;30.75;11.95;;;;;;;;;;4999683;28;20435;-67
2021/11/28 13:08:13;;;;;;;28.08;11.57;;;;;;;;;;4992820;28;20398;-68
2021/11/28 13:10:46;;;;;;;28.63;11.82;;;;;;;;;;5010841;28;20435;-67
2021/11/28 13:13:33;;;;;;;25.48;12.32;;;;;;;;;;5010043;28;20451;-67
2021/11/28 13:16:06;;;;;;;31.80;12.80;;;;;;;;;;5010478;28;20336;-66
2021/11/28 13:18:34;;;;;;;31.33;11.50;;;;;;;;;;5010040;28;20332;-67
2021/11/28 13:21:03;;;;;;;30.58;11.90;;;;;;;;;;5009946;28;20313;-67
2021/11/28 13:23:28;;;;;;;33.33;12.48;;;;;;;;;;5009183;28;20411;-67
2021/11/28 13:25:57;;;;;;;33.70;12.35;;;;;;;;;;5011744;28;20047;-67
2021/11/28 13:28:31;;;;;;;29.17;11.00;;;;;;;;;;4991791;28;20459;-67
2021/11/28 13:30:59;;;;;;;33.50;12.50;;;;;;;;;;5010165;28;20075;-67
2021/11/28 13:33:29;;;;;;;28.08;11.73;;;;;;;;;;4991719;28;20047;-66
2021/11/28 13:36:08;;;;;;;29.85;12.25;;;;;;;;;;4992264;28;20335;-67
2021/11/28 13:38:42;;;;;;;32.17;12.25;;;;;;;;;;5010626;28;20052;-67
2021/11/28 13:41:11;;;;;;;28.92;12.52;;;;;;;;;;5011213;28;20443;-68
2021/11/28 13:44:00;;;;;;;34.17;13.43;;;;;;;;;;5010536;28;20447;-67
2021/11/28 13:46:36;;;;;;;33.42;12.32;;;;;;;;;;4991736;28;20344;-67
2021/11/28 13:49:07;;;;;;;29.02;12.13;;;;;;;;;;5008552;28;20370;-67
2021/11/28 13:51:52;;;;;;;30.33;12.00;;;;;;;;;;4991597;28;20350;-68
2021/11/28 13:54:35;;;;;;;35.72;13.43;;;;;;;;;;5009602;28;20315;-67
2021/11/28 13:57:04;;;;;;;33.80;12.10;;;;;;;;;;5010491;28;20390;-67
2021/11/28 13:59:42;;;;;;;26.92;11.05;;;;;;;;;;5010978;28;20455;-68
2021/11/28 14:02:16;;;;;;;30.23;11.60;;;;;;;;;;4992190;28;20474;-67
2021/11/28 14:04:44;;;;;;;31.20;12.65;;;;;;;;;;5009539;28;20439;-71
2021/11/28 14:07:12;;;;;;;28.38;12.60;;;;;;;;;;4991444;28;20410;-67
2021/11/28 14:09:42;;;;;;;28.77;12.45;;;;;;;;;;5011120;28;20483;-67
2021/11/28 14:12:16;;;;;;;26.48;12.10;;;;;;;;;;5010359;28;20051;-67
2021/11/28 14:14:58;;;;;;;26.30;11.15;;;;;;;;;;4991576;28;20367;-67
2021/11/28 14:17:24;;;;;;;27.98;12.00;;;;;;;;;;5009366;28;20529;-67
2021/11/28 14:19:50;;;;;;;28.85;11.85;;;;;;;;;;5008921;28;20020;-66
2021/11/28 14:22:22;;;;;;;31.50;12.57;;;;;;;;;;5009035;28;20028;-67
2021/11/28 14:24:48;;;;;;;33.38;12.27;;;;;;;;;;5010557;28;20120;-66
2021/11/28 14:27:17;;;;;;;29.38;12.70;;;;;;;;;;5008911;28;20078;-67
2021/11/28 14:29:43;;;;;;;25.70;11.70;;;;;;;;;;5009041;28;20494;-67
2021/11/28 14:32:08;;;;;;;30.67;11.73;;;;;;;;;;5009979;28;20413;-67
2021/11/28 14:34:34;;;;;;;30.48;13.05;;;;;;;;;;5007760;28;20109;-68
2021/11/28 14:37:13;;;;;;;29.02;12.40;;;;;;;;;;5009353;28;20033;-67
2021/11/28 14:39:39;;;;;;;31.30;12.30;;;;;;;;;;5009298;28;20372;-67
2021/11/28 14:42:19;;;;;;;33.53;13.88;;;;;;;;;;5009198;28;20347;-68
2021/11/28 14:44:49;;;;;;;32.78;13.65;;;;;;;;;;4991064;28;20327;-67